Time;durP1;ratioP1;P1;durP2;ratioP2;P2;SDS_P1;SDS_P2;PMS_P1;PMS_P2;Temp;Humidity;BMP_temperature;BMP_pressure;BME280_temperature;BME280_humidity;BME280_pressure;Samples;Min_cycle;Max_cycle;Signal;HPM_P1;HPM_P2
2020/12/07 00:01:27;;;;;;;52.03;48.63;;;;;;;13.27;45.85;99258.69;4467785;32;33970;-85
2020/12/07 00:03:54;;;;;;;51.65;48.47;;;;;;;14.65;42.39;99258.53;4468009;32;33564;-84
2020/12/07 00:06:21;;;;;;;52.08;48.65;;;;;;;14.07;43.62;99262.50;4455655;32;32654;-85
2020/12/07 00:08:48;;;;;;;51.28;48.17;;;;;;;14.23;43.50;99256.44;4468697;32;33332;-85
2020/12/07 00:11:15;;;;;;;52.13;48.78;;;;;;;14.36;42.91;99257.47;4454946;32;33062;-83
2020/12/07 00:13:42;;;;;;;51.50;48.25;;;;;;;13.99;44.04;99257.66;4455937;32;34123;-85
2020/12/07 00:16:09;;;;;;;51.08;47.88;;;;;;;14.05;43.80;99272.19;4468071;32;33925;-85
2020/12/07 00:18:37;;;;;;;51.58;48.13;;;;;;;14.03;43.58;99280.12;4469374;32;33049;-84
2020/12/07 00:21:09;;;;;;;51.83;48.53;;;;;;;14.92;41.76;99273.62;4454957;32;33896;-84
2020/12/07 00:23:36;;;;;;;52.15;48.97;;;;;;;14.29;43.29;99291.03;4467859;32;34117;-85
2020/12/07 00:26:07;;;;;;;51.00;47.90;;;;;;;14.40;42.97;99286.97;4455332;32;34670;-84
2020/12/07 00:28:34;;;;;;;51.13;47.92;;;;;;;14.32;43.24;99280.38;4467839;32;32970;-85
2020/12/07 00:31:05;;;;;;;50.67;47.58;;;;;;;14.51;42.80;99280.22;4469069;32;34757;-85
2020/12/07 00:33:32;;;;;;;52.88;49.60;;;;;;;14.20;43.37;99286.28;4454711;32;32491;-85
2020/12/07 00:35:59;;;;;;;51.45;48.33;;;;;;;14.63;42.28;99290.97;4455392;32;33054;-84
2020/12/07 00:38:26;;;;;;;51.22;48.03;;;;;;;14.29;43.20;99285.78;4468243;32;33286;-85
2020/12/07 00:40:54;;;;;;;51.13;47.85;;;;;;;14.09;43.49;99288.59;4467655;32;33788;-85
2020/12/07 00:43:21;;;;;;;51.37;48.15;;;;;;;14.24;43.44;99284.31;4468962;32;33890;-85
2020/12/07 00:45:48;;;;;;;52.60;49.13;;;;;;;13.86;44.05;99283.63;4467778;32;34720;-85
2020/12/07 00:48:16;;;;;;;51.17;48.08;;;;;;;14.28;43.06;99284.09;4455264;32;32369;-85
2020/12/07 00:50:43;;;;;;;50.78;47.78;;;;;;;14.72;42.14;99287.88;4469328;32;34570;-85
2020/12/07 00:53:12;;;;;;;50.75;47.65;;;;;;;14.86;41.61;99285.31;4467113;32;34477;-83
2020/12/07 00:55:40;;;;;;;52.70;49.45;;;;;;;14.14;43.18;99283.97;4454858;32;32744;-84
2020/12/07 00:58:07;;;;;;;50.53;47.53;;;;;;;14.20;43.45;99288.91;4467710;32;33188;-85
2020/12/07 01:00:34;;;;;;;50.03;47.10;;;;;;;14.42;42.70;99278.09;4454821;32;33972;-84
2020/12/07 01:03:03;;;;;;;50.05;47.15;;;;;;;14.34;42.93;99281.12;4467718;32;32572;-86
2020/12/07 01:05:30;;;;;;;51.42;48.22;;;;;;;14.25;43.17;99286.84;4467855;32;33919;-84
2020/12/07 01:07:58;;;;;;;50.08;47.03;;;;;;;14.67;42.17;99292.50;4454828;32;32544;-85
2020/12/07 01:10:25;;;;;;;49.75;46.83;;;;;;;14.91;41.60;99290.31;4454992;32;34721;-84
2020/12/07 01:12:54;;;;;;;50.97;47.72;;;;;;;14.82;41.58;99282.94;4464865;32;34057;-85
2020/12/07 01:15:21;;;;;;;51.30;48.22;;;;;;;14.05;43.29;99295.75;4465596;32;33475;-85
2020/12/07 01:17:49;;;;;;;50.97;47.80;;;;;;;14.09;43.33;99299.91;4467876;32;33218;-84
2020/12/07 01:20:16;;;;;;;51.42;48.33;;;;;;;14.27;43.08;99300.72;4467297;32;32386;-84
2020/12/07 01:22:44;;;;;;;50.72;47.53;;;;;;;14.23;43.12;99309.69;4468990;32;33517;-84
2020/12/07 01:25:12;;;;;;;50.78;47.62;;;;;;;14.67;41.67;99311.69;4467631;32;32400;-84
2020/12/07 01:27:41;;;;;;;51.33;48.22;;;;;;;14.50;42.10;99309.13;4454985;32;33986;-86
2020/12/07 01:30:09;;;;;;;51.30;48.15;;;;;;;14.49;42.12;99308.28;4468466;32;34649;-84
2020/12/07 01:32:37;;;;;;;51.13;47.65;;;;;;;14.95;41.34;99301.47;4454821;32;34954;-84
2020/12/07 01:35:04;;;;;;;50.63;47.53;;;;;;;14.61;41.75;99306.78;4468825;32;34679;-85
2020/12/07 01:37:32;;;;;;;51.88;48.70;;;;;;;14.98;41.07;99302.16;4468925;32;33375;-85
2020/12/07 01:40:00;;;;;;;51.08;47.88;;;;;;;14.67;41.65;99293.34;4467691;32;34558;-85
2020/12/07 01:42:27;;;;;;;50.95;47.85;;;;;;;14.79;41.45;99297.06;4455160;32;33654;-86
2020/12/07 01:44:56;;;;;;;51.22;48.00;;;;;;;15.13;40.77;99282.06;4468507;32;34317;-84
2020/12/07 01:47:25;;;;;;;50.00;47.00;;;;;;;14.53;41.94;99288.84;4468558;32;33549;-84
2020/12/07 01:49:53;;;;;;;50.47;47.38;;;;;;;14.90;41.18;99296.47;4454347;32;33196;-85
2020/12/07 01:52:23;;;;;;;50.75;47.85;;;;;;;14.60;41.78;99289.34;4454048;32;33689;-84
2020/12/07 01:54:51;;;;;;;50.22;47.33;;;;;;;14.12;42.88;99288.44;4467217;32;33878;-83
2020/12/07 01:57:18;;;;;;;51.50;48.40;;;;;;;14.41;42.09;99281.62;4454393;32;32052;-85
2020/12/07 01:59:46;;;;;;;52.25;49.05;;;;;;;14.53;42.04;99280.97;4467508;32;33838;-86
2020/12/07 02:02:13;;;;;;;49.85;46.95;;;;;;;14.58;41.71;99285.97;4466929;32;32868;-85
2020/12/07 02:04:41;;;;;;;50.53;47.53;;;;;;;14.74;41.46;99285.16;4467142;32;32653;-86
2020/12/07 02:07:17;;;;;;;51.03;47.90;;;;;;;14.10;42.88;99282.44;4454654;32;34254;-84
2020/12/07 02:09:45;;;;;;;50.75;47.60;;;;;;;14.23;42.58;99282.66;4467154;32;34012;-84
2020/12/07 02:12:12;;;;;;;50.92;47.78;;;;;;;14.72;41.12;99285.25;4454709;32;35575;-83
2020/12/07 02:14:39;;;;;;;50.40;47.40;;;;;;;14.25;41.98;99283.41;4453802;32;34001;-84
2020/12/07 02:17:07;;;;;;;51.05;47.95;;;;;;;14.04;42.85;99294.09;4454125;32;33374;-85
2020/12/07 02:19:34;;;;;;;50.35;47.35;;;;;;;14.25;42.23;99284.22;4466879;32;33682;-85
2020/12/07 02:22:03;;;;;;;50.00;47.10;;;;;;;14.37;41.70;99274.88;4466933;32;32536;-84
2020/12/07 02:24:31;;;;;;;49.63;46.70;;;;;;;14.43;41.51;99276.31;4454645;32;34733;-86
2020/12/07 02:26:59;;;;;;;50.50;47.55;;;;;;;14.71;41.07;99280.94;4441654;32;31907;-84
2020/12/07 02:29:28;;;;;;;50.88;47.85;;;;;;;14.22;42.10;99271.31;4454646;32;34558;-83
2020/12/07 02:32:10;;;;;;;49.83;46.83;;;;;;;13.86;42.80;99278.38;4468465;32;34900;-83
2020/12/07 02:34:40;;;;;;;51.30;48.10;;;;;;;14.42;41.65;99280.72;4468241;32;33791;-85
2020/12/07 02:37:08;;;;;;;50.47;47.50;;;;;;;13.79;43.02;99287.50;4441418;32;32184;-85
2020/12/07 02:39:36;;;;;;;49.42;46.60;;;;;;;14.02;42.50;99280.22;4466907;32;33746;-84
2020/12/07 02:42:05;;;;;;;49.70;46.80;;;;;;;14.15;42.21;99280.44;4466787;32;34123;-85
2020/12/07 02:44:33;;;;;;;50.17;47.08;;;;;;;14.23;41.83;99287.88;4441265;32;32567;-84
2020/12/07 02:47:03;;;;;;;51.08;47.97;;;;;;;13.41;43.75;99282.44;4454334;32;34287;-83
2020/12/07 02:49:30;;;;;;;50.33;47.40;;;;;;;13.84;42.67;99271.53;4453494;32;32904;-84
2020/12/07 02:51:58;;;;;;;49.92;46.92;;;;;;;13.89;42.69;99269.53;4466780;32;34717;-84
2020/12/07 02:54:26;;;;;;;49.83;46.83;;;;;;;14.63;40.80;99257.75;4467911;32;34552;-84
2020/12/07 02:56:54;;;;;;;50.85;47.72;;;;;;;13.85;42.41;99258.41;4468138;32;33592;-84
2020/12/07 02:59:21;;;;;;;50.53;47.53;;;;;;;14.12;41.98;99262.22;4466509;32;33522;-83
2020/12/07 03:01:49;;;;;;;49.65;46.75;;;;;;;14.60;40.73;99257.91;4453527;32;34919;-85
2020/12/07 03:04:16;;;;;;;49.85;46.95;;;;;;;14.41;41.15;99262.44;4466402;32;33228;-86
2020/12/07 03:06:43;;;;;;;50.30;47.33;;;;;;;14.41;41.15;99265.91;4466539;32;33340;-85
2020/12/07 03:09:10;;;;;;;49.38;46.47;;;;;;;14.79;40.32;99268.22;4467264;32;34823;-84
2020/12/07 03:11:38;;;;;;;50.88;47.67;;;;;;;14.41;41.14;99260.66;4466300;32;34000;-84
2020/12/07 03:14:05;;;;;;;50.85;47.67;;;;;;;14.02;41.94;99257.47;4447392;32;33166;-85
2020/12/07 03:16:33;;;;;;;49.97;47.08;;;;;;;14.15;41.70;99260.31;4467362;32;34402;-84
2020/12/07 03:19:01;;;;;;;50.25;47.25;;;;;;;14.35;41.36;99251.38;4470099;32;34279;-85
2020/12/07 03:21:28;;;;;;;50.80;47.70;;;;;;;14.73;40.46;99252.84;4468931;32;33817;-84
2020/12/07 03:23:56;;;;;;;51.13;47.92;;;;;;;14.35;41.20;99253.16;4456039;32;34179;-83
2020/12/07 03:26:24;;;;;;;50.17;47.20;;;;;;;14.27;41.44;99256.19;4455813;32;33492;-84
2020/12/07 03:28:51;;;;;;;50.12;47.13;;;;;;;14.24;41.36;99256.34;4468553;32;32399;-84
2020/12/07 03:31:20;;;;;;;50.03;47.15;;;;;;;14.50;40.85;99259.31;4468257;32;33998;-85
2020/12/07 03:33:49;;;;;;;50.85;47.85;;;;;;;14.56;40.68;99253.75;4455647;32;32605;-85
2020/12/07 03:36:17;;;;;;;50.38;47.47;;;;;;;14.35;41.38;99248.75;4468148;32;33784;-85
2020/12/07 03:38:45;;;;;;;51.00;47.85;;;;;;;14.30;41.22;99261.25;4442750;32;33699;-84
2020/12/07 03:41:13;;;;;;;53.63;50.22;;;;;;;14.56;40.85;99260.75;4454991;32;32356;-84
2020/12/07 03:43:40;;;;;;;54.08;50.38;;;;;;;14.05;42.11;99253.03;4468396;32;33442;-84
2020/12/07 03:46:08;;;;;;;51.58;48.47;;;;;;;13.76;42.39;99255.38;4468281;32;32819;-85
2020/12/07 03:48:36;;;;;;;51.37;48.28;;;;;;;13.80;42.42;99256.91;4469668;32;34699;-84
2020/12/07 03:51:04;;;;;;;51.45;48.35;;;;;;;14.60;40.68;99250.03;4469554;32;34356;-84
2020/12/07 03:53:33;;;;;;;55.50;51.58;;;;;;;14.13;41.63;99262.19;4455029;32;33160;-85
2020/12/07 03:56:02;;;;;;;55.08;51.37;;;;;;;14.74;40.44;99258.94;4455311;32;33464;-83
2020/12/07 03:58:31;;;;;;;52.13;48.75;;;;;;;14.33;41.22;99257.62;4468460;32;34344;-83
2020/12/07 04:00:59;;;;;;;51.13;48.00;;;;;;;14.62;40.30;99268.28;4469702;32;33658;-84
2020/12/07 04:03:28;;;;;;;52.35;48.97;;;;;;;13.87;42.21;99263.53;4455395;32;34026;-85
2020/12/07 04:06:13;;;;;;;50.95;47.95;;;;;;;13.98;42.15;99260.34;4468138;32;34326;-83
2020/12/07 04:08:41;;;;;;;53.35;49.38;;;;;;;13.99;42.08;99254.19;4455601;32;33955;-84
2020/12/07 04:11:08;;;;;;;52.28;48.20;;;;;;;14.17;41.60;99261.09;4455270;32;33903;-83
2020/12/07 04:13:35;;;;;;;50.45;47.25;;;;;;;14.28;41.38;99264.88;4444124;32;34722;-84
2020/12/07 04:16:03;;;;;;;52.85;49.45;;;;;;;14.79;40.20;99262.16;4469418;32;34545;-84
2020/12/07 04:18:30;;;;;;;52.00;48.60;;;;;;;13.99;41.88;99268.13;4455274;32;33732;-84
2020/12/07 04:21:00;;;;;;;51.10;48.05;;;;;;;14.48;40.83;99258.59;4455393;32;34014;-84
2020/12/07 04:23:28;;;;;;;51.22;48.13;;;;;;;14.16;41.58;99269.87;4455673;32;34853;-83
2020/12/07 04:25:58;;;;;;;50.50;47.50;;;;;;;13.77;42.57;99284.09;4468353;32;33242;-83
2020/12/07 04:28:26;;;;;;;50.70;47.60;;;;;;;14.14;41.50;99279.56;4441305;32;34018;-84
2020/12/07 04:30:53;;;;;;;50.90;47.72;;;;;;;12.85;44.69;99269.41;4455158;32;33780;-82
2020/12/07 04:33:20;;;;;;;50.90;47.75;;;;;;;13.08;44.07;99275.28;4442410;32;32515;-83
2020/12/07 04:35:48;;;;;;;52.05;48.75;;;;;;;12.89;44.58;99293.63;4454845;32;32902;-84
2020/12/07 04:38:15;;;;;;;51.90;48.70;;;;;;;12.60;45.24;99289.78;4468036;32;34668;-85
2020/12/07 04:40:42;;;;;;;51.67;48.50;;;;;;;13.55;43.25;99288.75;4468008;32;33870;-84
2020/12/07 04:43:09;;;;;;;51.10;48.00;;;;;;;12.79;44.97;99292.37;4454909;32;34700;-85
2020/12/07 04:45:37;;;;;;;53.03;49.60;;;;;;;13.49;43.25;99295.13;4467706;32;34477;-84
2020/12/07 04:48:05;;;;;;;50.88;47.78;;;;;;;13.08;44.25;99304.06;4467675;32;33270;-84
2020/12/07 04:50:32;;;;;;;50.85;47.62;;;;;;;13.25;43.98;99313.72;4467641;32;33972;-84
2020/12/07 04:53:00;;;;;;;52.38;49.17;;;;;;;13.52;43.39;99308.06;4467112;32;34130;-83
2020/12/07 04:55:27;;;;;;;50.53;47.55;;;;;;;13.03;44.66;99319.97;4469074;32;33207;-84
2020/12/07 04:57:55;;;;;;;50.12;47.13;;;;;;;13.41;43.71;99323.47;4467811;32;33794;-84
2020/12/07 05:00:25;;;;;;;52.30;48.65;;;;;;;13.33;44.01;99319.41;4467765;32;32690;-83
2020/12/07 05:02:54;;;;;;;51.22;48.13;;;;;;;13.28;44.11;99316.19;4467447;32;33582;-83
2020/12/07 05:05:22;;;;;;;52.58;49.13;;;;;;;13.67;43.24;99319.56;4454748;32;32794;-84
2020/12/07 05:07:50;;;;;;;53.33;50.05;;;;;;;12.84;44.93;99321.75;4454739;32;33264;-84
2020/12/07 05:10:25;;;;;;;50.75;47.65;;;;;;;12.97;44.67;99314.19;4454734;32;33609;-84
2020/12/07 05:13:01;;;;;;;53.00;49.53;;;;;;;13.49;43.54;99305.59;4468448;32;34169;-83
2020/12/07 05:15:31;;;;;;;52.47;49.38;;;;;;;13.86;42.60;99319.47;4467379;32;34385;-84
2020/12/07 05:17:59;;;;;;;53.15;49.65;;;;;;;13.61;43.29;99323.31;4468430;32;33948;-83
2020/12/07 05:20:26;;;;;;;54.50;51.10;;;;;;;13.62;43.31;99319.78;4454298;32;33204;-83
2020/12/07 05:22:54;;;;;;;52.45;49.17;;;;;;;13.73;42.97;99324.47;4467061;32;33536;-84
2020/12/07 05:25:22;;;;;;;54.17;50.78;;;;;;;13.91;42.44;99317.44;4467344;32;33983;-84
2020/12/07 05:27:50;;;;;;;53.05;49.88;;;;;;;14.22;41.78;99317.63;4467142;32;33993;-83
2020/12/07 05:30:30;;;;;;;51.58;48.20;;;;;;;14.34;41.25;99315.19;4467501;32;33440;-85
2020/12/07 05:33:02;;;;;;;51.47;48.47;;;;;;;14.06;41.94;99323.66;4456138;32;32951;-83
2020/12/07 05:35:29;;;;;;;52.97;49.72;;;;;;;13.73;42.60;99326.25;4454844;32;33814;-84
2020/12/07 05:38:04;;;;;;;51.37;48.08;;;;;;;13.94;42.32;99335.63;4454512;32;33969;-83
2020/12/07 05:40:31;;;;;;;54.50;50.67;;;;;;;14.38;41.20;99325.53;4466781;32;34052;-84
2020/12/07 05:42:59;;;;;;;51.70;48.45;;;;;;;14.75;40.19;99320.94;4467013;32;33981;-83
2020/12/07 05:45:26;;;;;;;53.42;49.95;;;;;;;14.04;41.79;99325.53;4454233;32;32093;-84
2020/12/07 05:47:57;;;;;;;54.10;50.60;;;;;;;14.26;41.39;99327.84;4454558;32;33288;-85
2020/12/07 05:50:30;;;;;;;52.00;48.70;;;;;;;13.41;43.11;99328.69;4454646;32;32246;-85
2020/12/07 05:53:01;;;;;;;52.05;48.72;;;;;;;14.57;40.69;99322.75;4468316;32;33864;-84
2020/12/07 05:55:30;;;;;;;52.95;49.50;;;;;;;14.88;39.98;99329.81;4468751;32;34202;-82
2020/12/07 05:58:11;;;;;;;52.90;49.50;;;;;;;14.36;41.23;99323.00;4466982;32;34702;-83
2020/12/07 06:00:38;;;;;;;52.88;49.17;;;;;;;13.75;42.70;99329.59;4467253;32;34897;-83
2020/12/07 06:03:06;;;;;;;52.38;48.95;;;;;;;13.68;42.71;99332.56;4454098;32;33062;-84
2020/12/07 06:05:34;;;;;;;51.78;48.47;;;;;;;14.07;41.85;99327.16;4466982;32;34273;-83
2020/12/07 06:08:20;;;;;;;51.30;48.03;;;;;;;13.74;42.54;99331.41;4468090;32;33567;-83
2020/12/07 06:10:54;;;;;;;51.35;48.28;;;;;;;13.94;42.03;99327.75;4455234;32;34849;-84
2020/12/07 06:13:24;;;;;;;52.58;49.33;;;;;;;14.12;41.67;99323.34;4457866;32;34000;-85
2020/12/07 06:15:52;;;;;;;57.08;52.47;;;;;;;13.97;42.05;99326.75;4466833;32;33856;-84
2020/12/07 06:18:27;;;;;;;53.80;49.63;;;;;;;12.65;45.65;99321.78;4468198;32;33612;-83
2020/12/07 06:21:00;;;;;;;51.63;48.50;;;;;;;13.42;43.61;99323.37;4468011;32;34301;-84
2020/12/07 06:23:31;;;;;;;50.97;47.42;;;;;;;13.93;42.27;99326.06;4467781;32;33878;-84
2020/12/07 06:25:59;;;;;;;52.28;48.78;;;;;;;13.59;43.13;99322.56;4466634;32;33317;-83
2020/12/07 06:28:30;;;;;;;51.42;48.30;;;;;;;13.86;42.69;99332.53;4466764;32;34115;-84
2020/12/07 06:31:05;;;;;;;51.42;48.08;;;;;;;14.41;40.90;99327.97;4467983;32;33997;-85
2020/12/07 06:33:53;;;;;;;54.72;50.45;;;;;;;14.24;41.52;99334.09;4466286;32;34717;-82
2020/12/07 06:36:27;;;;;;;51.50;48.20;;;;;;;14.38;41.34;99336.84;4453540;32;33989;-81
2020/12/07 06:38:57;;;;;;;53.53;50.12;;;;;;;14.17;41.90;99330.94;4466106;32;34657;-82
2020/12/07 06:41:39;;;;;;;53.60;50.38;;;;;;;14.32;41.50;99335.41;4465752;32;34648;-82
2020/12/07 06:44:14;;;;;;;55.90;52.28;;;;;;;14.05;41.95;99336.84;4440507;32;32214;-81
2020/12/07 06:46:51;;;;;;;50.80;47.70;;;;;;;13.99;42.25;99341.47;4453589;32;32468;-82
2020/12/07 06:49:23;;;;;;;51.22;47.80;;;;;;;14.22;41.55;99328.94;4466461;32;33664;-81
2020/12/07 06:51:56;;;;;;;53.67;50.35;;;;;;;14.43;41.21;99324.34;4466810;32;33799;-83
2020/12/07 06:57:29;;;;;;;53.17;49.35;;;;;;;14.51;41.00;99327.38;4468360;32;32493;-82
2020/12/07 07:00:02;;;;;;;52.00;48.75;;;;;;;14.16;41.84;99345.84;4455131;32;34196;-84
2020/12/07 07:02:29;;;;;;;55.12;51.75;;;;;;;14.43;41.14;99340.06;4467796;32;33161;-82
2020/12/07 07:04:59;;;;;;;52.95;49.53;;;;;;;14.95;40.01;99338.19;4454222;32;32889;-84
2020/12/07 07:07:29;;;;;;;52.47;48.67;;;;;;;13.70;42.79;99356.03;4454758;32;33263;-83
2020/12/07 07:09:58;;;;;;;53.50;50.17;;;;;;;14.10;41.94;99351.38;4467617;32;34138;-83
2020/12/07 07:12:27;;;;;;;52.35;49.20;;;;;;;13.94;42.40;99358.34;4455089;32;34488;-81
2020/12/07 07:14:56;;;;;;;54.40;50.70;;;;;;;14.14;41.79;99352.09;4455458;32;34721;-83
2020/12/07 07:17:27;;;;;;;51.58;48.47;;;;;;;14.61;40.93;99350.50;4467538;32;33128;-82
2020/12/07 07:19:54;;;;;;;52.28;48.78;;;;;;;14.42;41.38;99355.88;4467536;32;33692;-84
2020/12/07 07:22:22;;;;;;;52.53;48.90;;;;;;;13.74;42.85;99356.75;4454573;32;33283;-84
2020/12/07 07:30:05;;;;;;;54.30;50.65;;;;;;;14.42;41.70;99363.75;4467957;32;34731;-83
2020/12/07 07:32:33;;;;;;;53.05;49.42;;;;;;;14.05;42.78;99374.34;4469446;32;34026;-83
2020/12/07 07:35:00;;;;;;;53.00;49.92;;;;;;;14.44;42.32;99373.22;4468010;32;33678;-82
2020/12/07 07:37:27;;;;;;;53.10;49.97;;;;;;;13.91;43.77;99382.09;4467582;32;34323;-84
2020/12/07 07:40:00;;;;;;;58.53;54.28;;;;;;;14.68;42.15;99383.37;4468680;32;33766;-82
2020/12/07 07:42:29;;;;;;;53.17;49.97;;;;;;;14.70;42.41;99389.34;4468270;32;33763;-83
2020/12/07 07:44:56;;;;;;;51.03;48.03;;;;;;;15.07;41.75;99378.66;4454614;32;34868;-80
2020/12/07 07:47:30;;;;;;;51.75;48.65;;;;;;;13.96;44.49;99391.41;4467778;32;32887;-83
2020/12/07 08:17:52;;;;;;;50.92;47.83;;;;;;;15.63;41.11;99416.59;4467751;32;33340;-82
2020/12/07 08:20:23;;;;;;;50.97;47.97;;;;;;;15.44;41.69;99415.97;4454607;32;33353;-82
2020/12/07 08:22:59;;;;;;;51.97;48.87;;;;;;;15.48;41.66;99417.47;4469077;32;33968;-83
2020/12/07 08:25:48;;;;;;;51.25;48.22;;;;;;;14.79;43.23;99432.59;4455452;32;33551;-83
2020/12/07 08:28:27;;;;;;;52.33;49.22;;;;;;;14.85;43.24;99435.75;4455279;32;34295;-81
2020/12/07 08:31:08;;;;;;;52.33;49.13;;;;;;;15.48;41.99;99438.47;4468786;32;34329;-81
2020/12/07 08:33:38;;;;;;;51.83;48.67;;;;;;;15.49;41.91;99441.03;4455288;32;33586;-81
2020/12/07 08:36:07;;;;;;;51.95;48.45;;;;;;;15.78;41.13;99441.16;4454343;32;32588;-82
2020/12/07 08:38:40;;;;;;;52.42;49.15;;;;;;;15.77;41.68;99449.97;4468752;32;34864;-81
2020/12/07 08:41:07;;;;;;;51.47;48.25;;;;;;;15.48;42.14;99435.84;4454971;32;33462;-82
2020/12/07 08:43:35;;;;;;;51.50;48.50;;;;;;;14.80;44.02;99442.19;4467687;32;34025;-83
2020/12/07 08:46:02;;;;;;;52.92;49.20;;;;;;;15.41;42.63;99430.09;4467628;32;33507;-83
2020/12/07 08:48:30;;;;;;;52.00;48.75;;;;;;;15.67;42.41;99443.53;4469101;32;33980;-82
2020/12/07 08:50:57;;;;;;;52.30;49.00;;;;;;;15.79;42.57;99440.19;4468955;32;34576;-83
2020/12/07 08:53:24;;;;;;;51.55;48.10;;;;;;;16.11;41.95;99439.31;4469851;32;33498;-83
2020/12/07 08:55:52;;;;;;;51.75;48.47;;;;;;;16.03;42.05;99451.13;4479082;32;35357;-83
2020/12/07 08:58:22;;;;;;;51.88;48.60;;;;;;;16.12;42.00;99454.97;4458484;32;33702;-81
2020/12/07 09:00:49;;;;;;;52.95;49.70;;;;;;;16.01;42.19;99458.22;4485236;32;34231;-83
2020/12/07 09:03:16;;;;;;;53.33;49.75;;;;;;;16.36;41.50;99462.34;4471331;32;33723;-84
2020/12/07 09:05:43;;;;;;;53.10;49.63;;;;;;;16.35;41.68;99469.41;4470548;32;33302;-84
2020/12/07 09:08:10;;;;;;;53.83;49.92;;;;;;;16.62;41.19;99466.06;4469888;32;34823;-83
2020/12/07 09:10:38;;;;;;;55.05;50.90;;;;;;;16.48;41.57;99461.63;4471327;32;33460;-84
2020/12/07 09:13:05;;;;;;;53.95;50.08;;;;;;;16.37;41.93;99469.31;4469528;32;33463;-84
2020/12/07 09:15:32;;;;;;;51.47;48.28;;;;;;;16.01;42.85;99468.75;4457867;32;33355;-84
2020/12/07 09:18:00;;;;;;;52.13;48.78;;;;;;;16.17;42.65;99465.25;4473079;32;35034;-82
2020/12/07 09:20:27;;;;;;;52.58;49.35;;;;;;;15.72;43.65;99466.94;4470677;32;33430;-83
2020/12/07 09:22:54;;;;;;;52.20;48.90;;;;;;;15.78;43.56;99469.19;4469874;32;33834;-82
2020/12/07 09:25:21;;;;;;;52.90;49.50;;;;;;;16.03;42.88;99466.87;4470507;32;34605;-83
2020/12/07 09:27:49;;;;;;;54.80;51.37;;;;;;;15.75;43.80;99466.75;4469676;32;32491;-82
2020/12/07 09:30:16;;;;;;;53.87;50.50;;;;;;;15.65;44.05;99466.44;4470303;32;33597;-85
2020/12/07 09:32:43;;;;;;;53.47;50.12;;;;;;;15.35;44.86;99475.91;4483973;32;33867;-83
2020/12/07 09:35:10;;;;;;;52.83;49.53;;;;;;;16.11;43.20;99474.31;4470115;32;33982;-88
2020/12/07 09:37:37;;;;;;;52.33;49.08;;;;;;;15.38;45.27;99484.53;4483904;32;33792;-81
2020/12/07 09:40:05;;;;;;;53.60;50.20;;;;;;;15.35;45.20;99475.06;4484030;32;34320;-85
2020/12/07 09:42:33;;;;;;;51.70;48.63;;;;;;;14.94;46.54;99475.53;4469829;32;34267;-84
2020/12/07 09:45:00;;;;;;;51.58;48.28;;;;;;;15.37;45.30;99465.34;4469911;32;34906;-84
2020/12/07 09:47:28;;;;;;;51.70;48.47;;;;;;;14.81;47.19;99470.94;4456704;32;32456;-83
2020/12/07 09:49:55;;;;;;;53.75;50.20;;;;;;;15.35;45.79;99475.06;4470138;32;33092;-83
2020/12/07 09:52:22;;;;;;;53.40;49.88;;;;;;;15.58;45.24;99473.81;4456410;32;34829;-84
2020/12/07 09:54:50;;;;;;;54.78;51.20;;;;;;;15.68;44.96;99471.50;4457144;32;33432;-84
2020/12/07 09:57:17;;;;;;;55.10;51.42;;;;;;;14.81;47.15;99484.06;4484019;32;33752;-84
2020/12/07 09:59:47;;;;;;;53.22;49.83;;;;;;;14.79;47.40;99474.56;4470258;32;34103;-83
2020/12/07 10:02:15;;;;;;;53.53;50.13;;;;;;;15.21;46.17;99467.97;4470902;32;33923;-84
2020/12/07 10:04:44;;;;;;;53.85;50.20;;;;;;;14.85;46.89;99469.84;4456688;32;33982;-86
2020/12/07 10:07:12;;;;;;;54.72;50.78;;;;;;;14.67;47.69;99473.44;4456514;32;33896;-83
2020/12/07 10:09:41;;;;;;;53.35;49.85;;;;;;;15.16;46.50;99477.84;4469646;32;32803;-83
2020/12/07 10:12:08;;;;;;;54.08;50.33;;;;;;;15.53;45.59;99475.84;4469483;32;34392;-82
2020/12/07 10:14:36;;;;;;;52.90;49.55;;;;;;;15.28;46.50;99474.56;4483385;32;33723;-83
2020/12/07 10:17:03;;;;;;;52.88;49.28;;;;;;;14.83;47.64;99478.72;4443496;32;33278;-84
2020/12/07 10:19:31;;;;;;;53.55;50.05;;;;;;;14.83;47.67;99473.47;4456547;32;34051;-83
2020/12/07 10:21:58;;;;;;;55.38;51.97;;;;;;;14.88;47.64;99471.47;4469691;32;33210;-82
2020/12/07 10:24:25;;;;;;;53.65;50.05;;;;;;;14.99;47.42;99465.63;4469581;32;33836;-83
2020/12/07 10:26:53;;;;;;;56.13;52.20;;;;;;;15.28;46.67;99463.22;4455258;32;33067;-82
2020/12/07 10:29:23;;;;;;;55.22;51.42;;;;;;;15.16;47.25;99464.72;4469448;32;33519;-83
2020/12/07 10:31:51;;;;;;;54.57;50.97;;;;;;;14.58;48.43;99461.59;4485377;32;34633;-82
2020/12/07 10:34:19;;;;;;;54.78;50.92;;;;;;;15.07;47.34;99460.81;4486049;32;34596;-84
2020/12/07 10:36:47;;;;;;;54.70;51.00;;;;;;;15.57;46.16;99458.97;4483610;32;34304;-82
2020/12/07 10:39:14;;;;;;;59.65;55.12;;;;;;;15.65;46.19;99459.37;4456333;32;32092;-83
2020/12/07 10:41:42;;;;;;;55.75;52.15;;;;;;;15.71;45.97;99466.06;4483477;32;33689;-83
2020/12/07 10:44:09;;;;;;;53.83;50.42;;;;;;;15.11;47.11;99464.97;4470289;32;34830;-84
2020/12/07 10:46:37;;;;;;;52.58;49.25;;;;;;;15.90;45.44;99458.03;4457038;32;34035;-83
2020/12/07 10:49:08;;;;;;;52.25;48.67;;;;;;;15.47;46.35;99461.25;4469824;32;33773;-83
2020/12/07 10:51:35;;;;;;;52.53;49.33;;;;;;;15.48;46.52;99464.75;4470861;32;33804;-83
2020/12/07 10:54:02;;;;;;;52.30;48.90;;;;;;;15.14;47.35;99463.94;4469338;32;34869;-84
2020/12/07 10:56:30;;;;;;;51.83;48.58;;;;;;;15.62;46.01;99461.31;4469404;32;33882;-82
2020/12/07 10:58:57;;;;;;;53.42;50.10;;;;;;;15.36;46.08;99467.09;4483135;32;34402;-82
2020/12/07 11:01:24;;;;;;;52.67;49.38;;;;;;;15.13;47.03;99471.00;4483295;32;33916;-84
2020/12/07 11:03:52;;;;;;;54.00;50.30;;;;;;;15.30;46.42;99464.81;4455795;32;33309;-83
2020/12/07 11:06:29;;;;;;;53.33;49.65;;;;;;;15.39;46.15;99467.87;4468442;32;35056;-84
2020/12/07 11:09:03;;;;;;;53.38;49.90;;;;;;;15.85;45.01;99462.69;4457742;32;34122;-84
2020/12/07 11:11:30;;;;;;;51.42;48.22;;;;;;;15.73;45.03;99466.84;4468899;32;33931;-82
2020/12/07 11:13:58;;;;;;;51.90;48.70;;;;;;;15.61;45.12;99460.50;4468490;32;34515;-83
2020/12/07 11:16:25;;;;;;;52.35;49.25;;;;;;;15.06;46.45;99459.13;4468734;32;33997;-83
2020/12/07 11:18:53;;;;;;;51.75;48.72;;;;;;;15.18;45.69;99466.34;4482962;32;33336;-82
2020/12/07 11:21:20;;;;;;;51.78;48.60;;;;;;;14.41;47.82;99469.50;4455660;32;34035;-82
2020/12/07 11:23:49;;;;;;;51.90;48.85;;;;;;;14.51;47.54;99460.25;4468549;32;34025;-82
2020/12/07 11:26:17;;;;;;;51.92;48.85;;;;;;;14.75;46.94;99463.38;4455806;32;33549;-84
2020/12/07 11:28:48;;;;;;;50.63;47.47;;;;;;;14.90;46.90;99458.25;4455538;32;33383;-83
2020/12/07 11:31:16;;;;;;;51.57;47.73;;;;;;;14.63;47.71;99475.34;4467898;32;33067;-83
2020/12/07 11:33:44;;;;;;;52.65;49.45;;;;;;;14.27;48.85;99467.59;4455173;32;32398;-83
2020/12/07 11:36:16;;;;;;;51.53;48.20;;;;;;;14.39;48.24;99469.56;4468812;32;33874;-83
2020/12/07 11:38:56;;;;;;;51.58;48.47;;;;;;;14.74;47.49;99466.09;4457037;32;32964;-82
2020/12/07 11:44:13;;;;;;;51.97;48.78;;;;;;;14.65;47.78;99459.53;4472465;32;33991;-83
2020/12/07 11:46:47;;;;;;;51.33;48.05;;;;;;;14.89;47.47;99462.66;4470614;32;33411;-83
2020/12/07 11:49:16;;;;;;;51.97;48.78;;;;;;;15.26;46.68;99457.19;4484844;32;33443;-83
2020/12/07 11:51:44;;;;;;;53.80;50.33;;;;;;;15.43;46.24;99458.88;4445593;32;32615;-83
2020/12/07 11:54:14;;;;;;;52.97;49.67;;;;;;;15.73;45.92;99458.94;4472382;32;33850;-83
2020/12/07 11:56:42;;;;;;;53.78;50.38;;;;;;;15.45;46.66;99459.63;4459417;32;34381;-83
2020/12/07 11:59:11;;;;;;;53.78;50.38;;;;;;;16.00;45.46;99464.41;4458429;32;33674;-84
2020/12/07 12:01:39;;;;;;;55.40;51.72;;;;;;;16.26;44.65;99462.06;4471802;32;33822;-84
2020/12/07 12:04:06;;;;;;;54.97;51.33;;;;;;;15.73;45.95;99460.72;4470817;32;34543;-83